Time;durP1;ratioP1;P1;durP2;ratioP2;P2;SDS_P1;SDS_P2;PMS_P1;PMS_P2;Temp;Humidity;BMP_temperature;BMP_pressure;BME280_temperature;BME280_humidity;BME280_pressure;Samples;Min_cycle;Max_cycle;Signal;HPM_P1;HPM_P2
2023/08/04 00:00:38;;;;;;;;;6.00;5.00;;;;;26.81;43.96;101157.03;5034544;28;45500;-73
2023/08/04 00:03:03;;;;;;;;;5.00;5.00;;;;;26.81;43.50;101145.53;5034431;28;45403;-73
2023/08/04 00:05:28;;;;;;;;;7.00;3.33;;;;;26.79;44.17;101148.41;5034602;28;45492;-73
2023/08/04 00:07:54;;;;;;;;;5.33;4.00;;;;;26.82;43.89;101155.19;5034608;28;46068;-73
2023/08/04 00:10:20;;;;;;;;;5.33;5.00;;;;;26.82;43.89;101160.53;5034532;28;45513;-73
2023/08/04 00:12:46;;;;;;;;;6.67;5.00;;;;;26.81;43.66;101156.19;5034548;28;45740;-73
2023/08/04 00:15:11;;;;;;;;;4.00;4.00;;;;;26.79;44.34;101153.75;5034674;28;45477;-73
2023/08/04 00:17:38;;;;;;;;;5.33;3.67;;;;;26.81;43.50;101157.03;5033810;28;45346;-73
2023/08/04 00:20:08;;;;;;;;;3.33;3.33;;;;;26.82;43.69;101152.53;5034256;28;45265;-73
2023/08/04 00:22:34;;;;;;;;;5.00;3.00;;;;;26.79;43.63;101148.41;5034565;28;45310;-73
2023/08/04 00:25:00;;;;;;;;;4.00;2.33;;;;;26.82;44.25;101152.53;5034265;27;45233;-73
2023/08/04 00:27:26;;;;;;;;;3.67;3.00;;;;;26.81;44.24;101154.34;5034133;28;46055;-72
2023/08/04 00:29:51;;;;;;;;;3.67;3.67;;;;;26.82;43.55;101152.53;5033859;28;45416;-73
2023/08/04 00:32:16;;;;;;;;;6.00;4.00;;;;;26.82;43.55;101158.69;5034094;28;45552;-73
2023/08/04 00:34:42;;;;;;;;;4.67;4.67;;;;;26.82;44.26;101158.69;5034345;28;47858;-73
2023/08/04 00:37:07;;;;;;;;;3.00;3.00;;;;;26.82;43.60;101153.34;5034183;28;45946;-73
2023/08/04 00:39:32;;;;;;;;;3.67;3.67;;;;;26.83;44.20;101156.81;5033750;28;52906;-73
2023/08/04 00:41:57;;;;;;;;;7.00;4.00;;;;;26.76;43.97;101151.50;5034344;28;45364;-73
2023/08/04 00:44:23;;;;;;;;;5.00;5.00;;;;;26.83;43.63;101160.31;5034218;28;45411;-73
2023/08/04 00:46:48;;;;;;;;;4.00;4.00;;;;;26.84;43.71;101175.31;5033858;28;45882;-73
2023/08/04 00:49:16;;;;;;;;;6.67;4.00;;;;;26.85;44.01;101170.78;5034161;28;45434;-73
2023/08/04 00:51:42;;;;;;;;;5.33;4.00;;;;;26.80;44.07;101168.75;5033894;28;45448;-73
2023/08/04 00:54:07;;;;;;;;;3.33;3.33;;;;;26.83;43.72;101165.66;5034095;28;45429;-73
2023/08/04 00:56:34;;;;;;;;;7.33;4.33;;;;;26.81;43.62;101167.72;5033848;28;46083;-73
2023/08/04 00:59:00;;;;;;;;;5.00;4.33;;;;;26.82;43.48;101171.19;5034028;28;45294;-73
2023/08/04 01:01:25;;;;;;;;;3.00;3.00;;;;;26.79;43.97;101164.44;5102824;27;45359;-73
2023/08/04 01:03:51;;;;;;;;;3.67;3.00;;;;;26.83;43.75;101165.66;5033964;28;45287;-73
2023/08/04 01:06:31;;;;;;;;;4.33;4.00;;;;;26.82;43.71;101172.03;5033834;28;46426;-73
2023/08/04 01:09:11;;;;;;;;;4.00;2.00;;;;;26.84;43.87;101174.47;5033775;28;45408;-73
2023/08/04 01:11:51;;;;;;;;;4.00;3.00;;;;;26.84;43.58;101174.47;5033932;28;45340;-73
2023/08/04 01:14:18;;;;;;;;;3.00;3.00;;;;;26.85;44.09;101176.13;5033484;28;45306;-73
2023/08/04 01:16:44;;;;;;;;;4.00;4.00;;;;;26.85;43.48;101170.78;5033677;28;45346;-73
2023/08/04 01:19:09;;;;;;;;;3.33;3.33;;;;;26.81;44.32;101162.38;5033494;27;45405;-73
2023/08/04 01:21:43;;;;;;;;;6.33;4.67;;;;;26.84;44.21;101175.31;5033841;28;45513;-73
2023/08/04 01:24:09;;;;;;;;;2.67;2.67;;;;;26.84;43.87;101169.16;5033778;28;45399;-73
2023/08/04 01:26:39;;;;;;;;;3.00;3.00;;;;;26.85;43.66;101179.59;5033470;27;45466;-73
2023/08/04 01:29:06;;;;;;;;;3.00;3.00;;;;;26.84;43.93;101172.63;5033142;28;45485;-73
2023/08/04 01:31:33;;;;;;;;;3.00;3.00;;;;;26.84;43.96;101172.63;5033574;28;45314;-73
2023/08/04 01:33:58;;;;;;;;;5.67;4.00;;;;;26.84;44.22;101174.47;5033665;28;45381;-73
2023/08/04 01:36:24;;;;;;;;;4.33;2.67;;;;;26.85;44.44;101176.13;5033375;28;46482;-73
2023/08/04 01:38:49;;;;;;;;;6.33;4.67;;;;;26.84;43.97;101183.31;5033409;28;45371;-73
2023/08/04 01:41:15;;;;;;;;;4.00;2.00;;;;;26.85;44.52;101186.81;5032253;28;45339;-73
2023/08/04 01:43:40;;;;;;;;;3.33;3.33;;;;;26.85;44.38;101184.16;5033331;28;45394;-73
2023/08/04 01:46:05;;;;;;;;;3.00;3.00;;;;;26.82;43.79;101185.38;5031856;28;57825;-73
2023/08/04 01:48:30;;;;;;;;;4.00;4.00;;;;;26.84;43.67;101182.50;5033540;28;45391;-73
2023/08/04 01:50:56;;;;;;;;;3.00;2.67;;;;;26.84;43.85;101183.31;5033203;27;45323;-73
2023/08/04 01:53:21;;;;;;;;;5.00;5.00;;;;;26.83;44.31;101179.00;5033529;27;45360;-73
2023/08/04 01:55:47;;;;;;;;;5.00;3.00;;;;;26.84;44.17;101186.00;5033010;28;53789;-73
2023/08/04 01:58:13;;;;;;;;;3.00;3.00;;;;;26.84;44.26;101186.00;5032925;28;45449;-73
2023/08/04 02:00:38;;;;;;;;;2.67;2.67;;;;;26.84;44.32;101188.66;5033255;28;45443;-73
2023/08/04 02:03:03;;;;;;;;;4.00;4.00;;;;;26.85;44.40;101184.94;5015380;28;45403;-73
2023/08/04 02:05:29;;;;;;;;;2.00;2.00;;;;;26.83;44.44;101184.34;5033071;28;46450;-74
2023/08/04 02:07:54;;;;;;;;;3.33;2.33;;;;;26.84;44.22;101193.16;5033255;28;45396;-73
2023/08/04 02:10:19;;;;;;;;;4.67;3.00;;;;;26.84;44.42;101191.31;5033171;28;45506;-73
2023/08/04 02:12:44;;;;;;;;;4.33;4.33;;;;;26.85;43.75;101192.16;5032907;28;45437;-73
2023/08/04 02:15:10;;;;;;;;;3.33;3.33;;;;;26.83;43.92;101197.69;5032961;28;45405;-73
2023/08/04 02:17:36;;;;;;;;;2.67;2.67;;;;;26.82;44.15;101200.56;5032827;28;45354;-73
2023/08/04 02:20:02;;;;;;;;;5.00;3.33;;;;;26.83;44.26;101200.34;5033080;28;45450;-73
2023/08/04 02:22:27;;;;;;;;;2.67;2.67;;;;;26.80;44.12;101198.13;5033008;28;45428;-72
2023/08/04 02:24:52;;;;;;;;;4.33;3.00;;;;;26.80;43.99;101187.44;5032678;27;46054;-73
2023/08/04 02:27:18;;;;;;;;;2.33;2.33;;;;;26.82;44.32;101189.88;5032549;28;45364;-73
2023/08/04 02:29:43;;;;;;;;;3.00;3.00;;;;;26.80;44.40;101194.63;5032847;28;45618;-73
2023/08/04 02:32:08;;;;;;;;;4.00;4.00;;;;;26.81;44.46;101190.91;5032869;28;45337;-73
2023/08/04 02:34:33;;;;;;;;;3.00;3.00;;;;;26.80;44.38;101191.94;5032709;28;46081;-73
2023/08/04 02:36:59;;;;;;;;;3.67;3.67;;;;;26.80;44.31;101190.09;5032697;28;45497;-73
2023/08/04 02:39:24;;;;;;;;;3.00;3.00;;;;;26.80;44.43;101190.09;5032781;28;45272;-73
2023/08/04 02:41:49;;;;;;;;;2.67;2.67;;;;;26.82;44.37;101193.38;5032397;28;45355;-74
2023/08/04 02:44:15;;;;;;;;;3.00;3.00;;;;;26.82;43.87;101198.72;5032502;28;46311;-73
2023/08/04 02:46:40;;;;;;;;;3.00;3.00;;;;;26.83;44.07;101204.84;5032623;28;45272;-73
2023/08/04 02:49:05;;;;;;;;;4.67;3.67;;;;;26.77;44.08;101195.03;5032676;28;45503;-73
2023/08/04 02:51:31;;;;;;;;;2.33;1.33;;;;;26.82;44.46;101204.06;5032959;28;45354;-73
2023/08/04 02:53:56;;;;;;;;;3.00;3.00;;;;;26.81;44.04;101197.06;5035436;28;45495;-73
2023/08/04 02:56:21;;;;;;;;;3.67;3.33;;;;;26.83;43.96;101196.84;5035180;28;45478;-73
2023/08/04 02:58:47;;;;;;;;;3.00;3.00;;;;;26.81;44.01;101204.25;5035801;28;45315;-73
2023/08/04 03:01:13;;;;;;;;;3.00;3.00;;;;;26.83;43.75;101211.03;5035410;28;45507;-73
2023/08/04 03:03:39;;;;;;;;;3.00;3.00;;;;;26.80;43.97;101208.78;5035415;28;45283;-73
2023/08/04 03:06:06;;;;;;;;;4.67;3.00;;;;;26.83;44.48;101212.88;5035370;28;45343;-73
2023/08/04 03:08:31;;;;;;;;;2.33;2.33;;;;;26.82;44.04;101216.59;5035364;28;45465;-73
2023/08/04 03:10:58;;;;;;;;;4.00;4.00;;;;;26.78;43.91;101204.69;5035024;28;45314;-73
2023/08/04 03:13:23;;;;;;;;;2.33;2.33;;;;;26.79;44.57;101208.97;5035145;28;46284;-72
2023/08/04 03:15:56;;;;;;;;;3.00;3.00;;;;;26.82;44.47;101214.75;5035307;28;45402;-73
2023/08/04 03:18:22;;;;;;;;;2.00;2.00;;;;;26.82;43.80;101217.41;5035195;27;45407;-73
2023/08/04 03:20:47;;;;;;;;;6.00;3.00;;;;;26.82;43.80;101212.06;5035152;27;45681;-73
2023/08/04 03:23:12;;;;;;;;;3.33;2.00;;;;;26.82;44.01;101214.75;5035204;28;45246;-73
2023/08/04 03:25:38;;;;;;;;;3.00;3.00;;;;;26.82;43.96;101220.06;5034655;27;45411;-72
2023/08/04 03:28:03;;;;;;;;;3.33;3.33;;;;;26.80;44.14;101208.78;5035293;28;45545;-73
2023/08/04 03:30:28;;;;;;;;;3.00;3.00;;;;;26.79;44.26;101220.47;5035261;28;45317;-73
2023/08/04 03:32:54;;;;;;;;;3.67;3.67;;;;;26.82;44.32;101220.06;5034863;28;47020;-73
2023/08/04 03:35:19;;;;;;;;;5.67;4.00;;;;;26.80;44.34;101223.97;5033785;28;45838;-73
2023/08/04 03:37:44;;;;;;;;;3.33;3.00;;;;;26.82;44.59;101224.59;5035149;28;45348;-73
2023/08/04 03:40:10;;;;;;;;;3.00;3.00;;;;;26.80;43.75;101227.47;5034227;28;49546;-73
2023/08/04 03:42:37;;;;;;;;;3.33;3.33;;;;;26.81;44.41;101225.59;5034930;28;46175;-73
2023/08/04 03:45:03;;;;;;;;;3.00;3.00;;;;;26.82;44.03;101235.25;5034900;28;45375;-73
2023/08/04 03:47:29;;;;;;;;;4.00;3.00;;;;;26.74;44.37;101220.28;5034881;28;45322;-73
2023/08/04 03:49:55;;;;;;;;;2.33;2.33;;;;;26.79;43.99;101236.50;5035020;28;45334;-73
2023/08/04 03:52:21;;;;;;;;;3.67;3.67;;;;;26.80;44.04;101237.31;5034660;27;45494;-73
2023/08/04 03:54:46;;;;;;;;;2.00;2.00;;;;;26.80;44.00;101234.66;5034314;28;45326;-73
2023/08/04 03:57:11;;;;;;;;;2.33;2.00;;;;;26.80;44.47;101242.66;5035121;28;45287;-73
2023/08/04 03:59:37;;;;;;;;;2.67;2.00;;;;;26.81;44.01;101238.94;5034756;28;45362;-73
2023/08/04 04:02:02;;;;;;;;;4.00;2.00;;;;;26.80;44.25;101245.34;5034505;28;46524;-73
2023/08/04 04:04:27;;;;;;;;;3.00;2.67;;;;;26.80;44.29;101248.00;5033953;28;45409;-73
2023/08/04 04:06:52;;;;;;;;;3.00;2.00;;;;;26.79;44.44;101247.19;5034879;28;45636;-73
2023/08/04 04:09:18;;;;;;;;;3.00;3.00;;;;;26.80;43.80;101259.50;5034347;28;45322;-73
2023/08/04 04:11:43;;;;;;;;;4.00;4.00;;;;;26.78;44.25;101260.72;5034447;28;45284;-73
2023/08/04 04:14:10;;;;;;;;;3.33;3.00;;;;;26.78;44.38;101258.06;5034537;28;45288;-73
2023/08/04 04:16:36;;;;;;;;;5.67;2.33;;;;;26.81;43.80;101266.47;5034728;28;45342;-73
2023/08/04 04:19:01;;;;;;;;;2.33;2.33;;;;;26.82;44.49;101269.97;5034288;28;45331;-73
2023/08/04 04:21:26;;;;;;;;;2.33;2.00;;;;;26.80;44.39;101267.50;5034266;28;45915;-72
2023/08/04 04:23:52;;;;;;;;;4.00;3.00;;;;;26.82;43.87;101269.97;5034250;28;45338;-73
2023/08/04 04:26:17;;;;;;;;;2.33;2.33;;;;;26.79;44.17;101273.88;5034470;27;45368;-73
2023/08/04 04:28:42;;;;;;;;;3.00;3.00;;;;;26.81;43.89;101284.31;5034424;28;45340;-73
2023/08/04 04:31:08;;;;;;;;;2.00;2.00;;;;;26.81;44.08;101276.31;5034294;28;46118;-73
2023/08/04 04:33:33;;;;;;;;;3.33;2.33;;;;;26.77;44.13;101273.25;5034137;28;51419;-73
2023/08/04 04:35:58;;;;;;;;;2.67;2.67;;;;;26.79;44.06;101273.03;5034536;28;45415;-73
2023/08/04 04:38:28;;;;;;;;;3.33;3.33;;;;;26.78;44.27;101279.41;5034086;28;45506;-73
2023/08/04 04:41:01;;;;;;;;;2.33;2.33;;;;;26.80;44.33;101270.19;5034014;28;47010;-73
2023/08/04 04:43:28;;;;;;;;;2.00;2.00;;;;;26.81;43.82;101282.50;5034156;28;45342;-73
2023/08/04 04:45:54;;;;;;;;;2.00;2.00;;;;;26.81;43.77;101284.31;5034248;28;45409;-73
2023/08/04 04:48:21;;;;;;;;;3.00;3.00;;;;;26.80;44.24;101286.19;5034172;28;45313;-73
2023/08/04 04:50:46;;;;;;;;;2.00;2.00;;;;;26.73;43.82;101275.50;5034149;28;46087;-73
2023/08/04 04:53:14;;;;;;;;;2.00;2.00;;;;;26.81;44.11;101293.16;5033540;28;45348;-73
2023/08/04 04:55:39;;;;;;;;;2.00;2.00;;;;;26.80;43.90;101294.22;5034283;28;45602;-73
2023/08/04 04:58:05;;;;;;;;;2.00;2.00;;;;;26.78;44.41;101292.75;5034133;28;45385;-73
2023/08/04 05:00:31;;;;;;;;;4.67;3.00;;;;;26.77;43.85;101285.78;5033794;28;46848;-73
2023/08/04 05:02:57;;;;;;;;;4.00;2.00;;;;;26.76;44.11;101292.94;5034036;28;45272;-73
2023/08/04 05:05:23;;;;;;;;;2.00;2.00;;;;;26.79;43.97;101303.22;5033913;28;45323;-73
2023/08/04 05:07:48;;;;;;;;;2.67;2.67;;;;;26.76;44.45;101300.94;5033777;28;45443;-73
2023/08/04 05:10:13;;;;;;;;;2.33;2.33;;;;;26.80;44.16;101310.22;5102819;27;48341;-73
2023/08/04 05:12:39;;;;;;;;;4.67;3.33;;;;;26.80;43.91;101312.06;5016091;28;45429;-73
2023/08/04 05:15:05;;;;;;;;;3.00;3.00;;;;;26.79;44.00;101305.91;5033834;28;45427;-73
2023/08/04 05:17:30;;;;;;;;;2.00;2.00;;;;;26.80;44.17;101309.41;5033635;28;45326;-73
2023/08/04 05:19:55;;;;;;;;;3.00;3.00;;;;;26.80;43.99;101312.06;5033554;28;45978;-73
2023/08/04 05:22:21;;;;;;;;;3.00;3.00;;;;;26.81;44.09;101324.38;5033417;28;45307;-73
2023/08/04 05:24:46;;;;;;;;;3.00;3.00;;;;;26.76;44.05;101306.28;5033771;27;45285;-73
2023/08/04 05:27:11;;;;;;;;;1.00;1.00;;;;;26.80;43.99;101320.06;5033802;28;45345;-73
2023/08/04 05:29:37;;;;;;;;;2.33;2.33;;;;;26.80;44.02;101320.06;5033430;28;46159;-73
2023/08/04 05:32:02;;;;;;;;;3.33;3.33;;;;;26.76;44.42;101313.47;5033351;28;45309;-72
2023/08/04 05:34:28;;;;;;;;;5.00;3.00;;;;;26.77;44.08;101312.47;5033912;27;45404;-74
2023/08/04 05:36:53;;;;;;;;;2.67;2.67;;;;;26.76;44.37;101314.31;5033173;28;45233;-73
2023/08/04 05:39:18;;;;;;;;;3.00;3.00;;;;;26.76;44.69;101319.63;5026438;28;47085;-73
2023/08/04 05:41:45;;;;;;;;;5.67;2.67;;;;;26.78;44.11;101322.13;5019536;28;45369;-73
2023/08/04 05:44:11;;;;;;;;;3.00;2.67;;;;;26.76;44.77;101324.97;5050434;28;45396;-74
2023/08/04 05:46:37;;;;;;;;;2.00;2.00;;;;;26.77;44.40;101323.13;5094891;27;45539;-73
2023/08/04 05:49:03;;;;;;;;;3.67;3.00;;;;;26.81;44.62;101338.53;5096516;27;46607;-73
2023/08/04 05:51:28;;;;;;;;;2.00;2.00;;;;;26.81;44.47;101333.22;5101668;27;45272;-73
2023/08/04 05:53:53;;;;;;;;;3.33;3.00;;;;;26.82;44.25;101342.03;5115868;27;45433;-73
2023/08/04 05:56:19;;;;;;;;;4.00;2.67;;;;;26.85;44.86;101336.31;5127710;27;45494;-73
2023/08/04 05:58:44;;;;;;;;;3.67;3.00;;;;;26.83;44.30;101344.50;5059467;27;46430;-72
2023/08/04 06:01:09;;;;;;;;;3.00;3.00;;;;;26.82;45.10;101339.38;5021116;28;45391;-74
2023/08/04 06:03:35;;;;;;;;;3.00;2.00;;;;;26.81;44.77;101346.56;5016872;27;45439;-75
2023/08/04 06:06:00;;;;;;;;;2.67;2.67;;;;;26.83;44.48;101349.84;5013247;27;45314;-72
2023/08/04 06:08:25;;;;;;;;;2.33;2.33;;;;;26.84;45.13;101353.34;5016477;28;50012;-72
2023/08/04 06:10:51;;;;;;;;;3.00;3.00;;;;;26.84;44.54;101356.84;5032512;28;45755;-73
2023/08/04 06:13:16;;;;;;;;;2.33;2.33;;;;;26.85;45.15;101355.00;5032532;28;45489;-72
2023/08/04 06:15:41;;;;;;;;;3.00;3.00;;;;;26.84;45.22;101354.16;5032820;28;45380;-72
2023/08/04 06:18:07;;;;;;;;;2.00;2.00;;;;;26.85;45.11;101365.66;5032618;28;45945;-71
2023/08/04 06:20:32;;;;;;;;;2.00;1.00;;;;;26.85;45.12;101371.00;5032233;28;45281;-71
2023/08/04 06:22:58;;;;;;;;;2.33;2.00;;;;;26.86;45.00;101372.63;5032553;27;45352;-72
2023/08/04 06:25:23;;;;;;;;;4.00;3.00;;;;;26.87;45.00;101376.13;5032495;27;45379;-71
2023/08/04 06:27:49;;;;;;;;;2.00;2.00;;;;;26.87;45.07;101378.81;5032019;28;46590;-72
2023/08/04 06:30:15;;;;;;;;;3.00;3.00;;;;;26.87;44.73;101387.66;5032730;28;45520;-72
2023/08/04 06:32:41;;;;;;;;;3.00;3.00;;;;;26.87;44.67;101387.66;5032747;27;45485;-72
2023/08/04 06:35:07;;;;;;;;;6.00;3.00;;;;;26.87;44.51;101392.16;5032560;28;45453;-72
2023/08/04 06:37:32;;;;;;;;;3.00;3.00;;;;;26.87;44.80;101397.50;5032097;28;46104;-72
2023/08/04 06:39:58;;;;;;;;;4.00;2.67;;;;;26.85;45.12;101395.03;5032190;28;45422;-72
2023/08/04 06:42:23;;;;;;;;;1.00;1.00;;;;;26.86;45.05;101399.34;5032107;28;45417;-72
2023/08/04 06:44:49;;;;;;;;;4.00;2.67;;;;;26.85;44.66;101401.19;5032252;28;45334;-71
2023/08/04 06:47:14;;;;;;;;;3.00;3.00;;;;;26.87;44.39;101406.34;5032133;28;46616;-72
2023/08/04 06:49:41;;;;;;;;;2.00;2.00;;;;;26.88;44.51;101407.16;5032395;28;45340;-72
2023/08/04 06:52:08;;;;;;;;;2.33;2.00;;;;;26.89;44.71;101412.28;5032309;28;45484;-72
2023/08/04 06:54:33;;;;;;;;;4.00;2.67;;;;;26.87;44.51;101406.34;5032436;27;45383;-72
2023/08/04 06:56:59;;;;;;;;;2.00;2.00;;;;;26.88;45.10;101415.16;5032025;28;46128;-71
2023/08/04 06:59:24;;;;;;;;;3.67;3.33;;;;;26.88;44.39;101415.16;5031926;28;45370;-72
2023/08/04 07:01:49;;;;;;;;;1.67;1.67;;;;;26.86;44.83;101418.03;5031775;28;45570;-71
2023/08/04 07:04:15;;;;;;;;;2.00;2.00;;;;;26.88;44.59;101423.97;5032273;28;45335;-72
2023/08/04 07:06:40;;;;;;;;;4.00;3.00;;;;;26.90;45.08;101421.13;5032097;28;45909;-71
2023/08/04 07:09:05;;;;;;;;;2.00;2.00;;;;;26.89;44.96;101422.97;5031984;28;45342;-72
2023/08/04 07:11:31;;;;;;;;;2.33;2.00;;;;;26.90;44.37;101429.13;5031881;28;45284;-72
2023/08/04 07:13:56;;;;;;;;;3.00;2.33;;;;;26.89;44.42;101430.16;5032331;28;45337;-71
2023/08/04 07:16:22;;;;;;;;;3.00;1.67;;;;;26.90;44.95;101435.31;5031563;28;47812;-72
2023/08/04 07:18:47;;;;;;;;;3.00;1.67;;;;;26.91;45.15;101442.28;5031729;27;45334;-71
2023/08/04 07:21:14;;;;;;;;;3.00;3.00;;;;;26.92;44.45;101449.28;5031926;28;45308;-72
2023/08/04 07:23:41;;;;;;;;;1.00;1.00;;;;;26.92;45.17;101443.94;5031552;28;45488;-72
2023/08/04 07:26:07;;;;;;;;;2.00;2.00;;;;;26.94;44.64;101451.75;5032442;27;46280;-72
2023/08/04 07:28:34;;;;;;;;;2.00;2.00;;;;;26.94;45.04;101452.56;5031834;28;45493;-72
2023/08/04 07:31:06;;;;;;;;;4.00;4.00;;;;;26.94;44.59;101449.91;5031493;28;45377;-72
2023/08/04 07:33:32;;;;;;;;;3.00;3.00;;;;;26.93;44.67;101456.25;5031620;28;45261;-72
2023/08/04 07:35:59;;;;;;;;;2.00;2.00;;;;;26.94;44.58;101463.25;5013848;28;46377;-72
2023/08/04 07:38:25;;;;;;;;;2.00;2.00;;;;;26.95;44.81;101464.91;5032036;28;45352;-72
2023/08/04 07:40:51;;;;;;;;;3.00;3.00;;;;;26.94;44.54;101457.06;5034671;28;45334;-72
2023/08/04 07:43:16;;;;;;;;;3.00;3.00;;;;;26.95;44.67;101456.91;5069917;27;45349;-72
2023/08/04 07:45:42;;;;;;;;;2.67;2.33;;;;;26.95;45.11;101467.56;5034185;28;46292;-72
2023/08/04 07:48:08;;;;;;;;;2.00;2.00;;;;;26.96;44.73;101474.53;5034019;28;45344;-72
2023/08/04 07:50:40;;;;;;;;;4.67;3.67;;;;;26.97;44.30;101475.38;5034895;28;45314;-71
2023/08/04 07:53:06;;;;;;;;;3.33;3.33;;;;;26.98;44.29;101468.19;5034544;28;45534;-71
2023/08/04 07:55:36;;;;;;;;;4.00;2.00;;;;;26.96;44.42;101466.53;5034485;28;45441;-72
2023/08/04 07:58:04;;;;;;;;;2.00;2.00;;;;;26.99;44.23;101465.31;5034605;28;45377;-72
2023/08/04 08:00:29;;;;;;;;;2.00;2.00;;;;;27.01;44.30;101465.94;5034206;28;45338;-72
2023/08/04 08:02:55;;;;;;;;;3.00;3.00;;;;;27.03;44.46;101466.59;5034520;28;45428;-72
2023/08/04 08:05:20;;;;;;;;;2.00;2.00;;;;;27.05;44.92;101472.53;5034543;28;45442;-72
2023/08/04 08:07:45;;;;;;;;;5.00;4.00;;;;;27.03;44.93;101469.25;5035080;27;45401;-72
2023/08/04 08:10:11;;;;;;;;;3.00;3.00;;;;;27.07;44.96;101478.50;5034567;28;45318;-72
2023/08/04 08:12:36;;;;;;;;;6.00;4.00;;;;;27.09;44.32;101480.97;5034624;28;45351;-72
2023/08/04 08:15:05;;;;;;;;;3.33;3.33;;;;;27.09;44.64;101475.63;5033837;28;46323;-73
2023/08/04 08:17:30;;;;;;;;;4.00;4.00;;;;;27.12;44.63;101482.41;5034160;27;45201;-72
2023/08/04 08:19:56;;;;;;;;;4.00;4.00;;;;;27.14;44.56;101481.22;5034359;28;45703;-72
2023/08/04 08:22:21;;;;;;;;;2.33;2.33;;;;;27.18;44.40;101481.66;5034237;28;45269;-72
2023/08/04 08:24:47;;;;;;;;;3.67;3.67;;;;;27.21;44.50;101475.09;5034321;28;45480;-72
2023/08/04 08:27:13;;;;;;;;;5.00;4.00;;;;;27.25;44.05;101481.66;5034338;28;45366;-72
2023/08/04 08:29:41;;;;;;;;;3.00;3.00;;;;;27.28;44.68;101479.41;5033935;28;45437;-73
2023/08/04 08:32:07;;;;;;;;;5.00;4.00;;;;;27.32;43.89;101477.19;5034072;28;45416;-71
2023/08/04 08:34:32;;;;;;;;;2.33;2.33;;;;;27.37;44.36;101481.91;5034066;28;46336;-73
2023/08/04 08:36:57;;;;;;;;;5.00;4.00;;;;;27.35;44.22;101487.44;5034229;28;45445;-73
2023/08/04 08:39:23;;;;;;;;;3.00;3.00;;;;;27.38;44.38;101479.03;5033986;28;45315;-73
2023/08/04 08:41:48;;;;;;;;;4.67;4.67;;;;;27.40;44.14;101490.34;5034165;28;45487;-73
2023/08/04 08:44:14;;;;;;;;;4.33;3.00;;;;;27.42;44.22;101481.31;5033599;28;45293;-73
2023/08/04 08:46:39;;;;;;;;;4.67;4.00;;;;;27.44;43.64;101489.94;5034071;28;45322;-73
2023/08/04 08:49:05;;;;;;;;;3.00;3.00;;;;;27.43;43.54;101488.31;5033740;28;45505;-73
2023/08/04 08:51:32;;;;;;;;;5.00;5.00;;;;;27.46;44.25;101487.88;5032810;28;45338;-73
2023/08/04 08:53:59;;;;;;;;;5.67;3.00;;;;;27.47;43.77;101498.38;5033867;28;46843;-73
2023/08/04 08:56:26;;;;;;;;;4.33;3.33;;;;;27.49;43.50;101499.00;5033704;28;45367;-73
2023/08/04 08:58:51;;;;;;;;;4.67;3.33;;;;;27.49;44.10;101504.34;5033552;28;45368;-73
2023/08/04 09:01:18;;;;;;;;;4.67;4.67;;;;;27.48;43.64;101497.34;5033570;28;45303;-73
2023/08/04 09:03:43;;;;;;;;;4.33;3.00;;;;;27.51;43.46;101499.63;5033260;28;45288;-73
2023/08/04 09:06:09;;;;;;;;;4.00;3.00;;;;;27.54;43.42;101498.41;5033569;28;45448;-73
2023/08/04 09:08:34;;;;;;;;;6.33;4.00;;;;;27.56;43.83;101496.34;5033621;28;45304;-73
2023/08/04 09:10:59;;;;;;;;;7.00;5.00;;;;;27.61;43.53;101501.09;5015934;28;45599;-72
2023/08/04 09:13:26;;;;;;;;;4.00;4.00;;;;;27.63;43.99;101501.72;5033382;28;45574;-73
2023/08/04 09:15:52;;;;;;;;;3.00;3.00;;;;;27.62;43.15;101506.22;5033668;28;45436;-73
2023/08/04 09:18:31;;;;;;;;;4.67;4.00;;;;;27.61;43.62;101514.47;5033326;28;45977;-73
2023/08/04 09:21:01;;;;;;;;;7.00;5.33;;;;;27.58;43.37;101525.56;5033387;28;45362;-73
2023/08/04 09:23:30;;;;;;;;;5.00;5.00;;;;;27.57;43.51;101526.56;5033060;28;46247;-73
2023/08/04 09:25:56;;;;;;;;;4.00;4.00;;;;;27.57;42.98;101529.25;5033215;27;45428;-73
2023/08/04 09:28:22;;;;;;;;;4.00;4.00;;;;;27.57;43.25;101534.59;5032717;28;45469;-73
2023/08/04 09:31:03;;;;;;;;;4.00;4.00;;;;;27.55;43.14;101526.78;5033482;28;45383;-73
2023/08/04 09:33:29;;;;;;;;;2.00;2.00;;;;;27.54;43.23;101535.81;5033242;28;45357;-73
2023/08/04 09:36:03;;;;;;;;;5.67;4.00;;;;;27.53;43.61;101528.84;5033168;28;45289;-73
2023/08/04 09:38:28;;;;;;;;;4.33;3.33;;;;;27.52;43.53;101532.53;5033356;28;45427;-73
2023/08/04 09:41:07;;;;;;;;;4.00;4.00;;;;;27.53;43.06;101526.16;5015288;28;45270;-73
2023/08/04 09:43:33;;;;;;;;;5.00;3.33;;;;;27.53;43.54;101523.50;5032625;28;47422;-73
2023/08/04 09:46:05;;;;;;;;;5.00;4.00;;;;;27.54;43.46;101522.44;5033368;28;45369;-73
2023/08/04 09:48:31;;;;;;;;;5.67;3.67;;;;;27.56;43.43;101527.59;5033285;28;45473;-73
2023/08/04 09:51:19;;;;;;;;;4.00;4.00;;;;;27.59;43.56;101527.19;5033003;28;45317;-73
2023/08/04 09:53:50;;;;;;;;;6.00;5.00;;;;;27.60;42.87;101526.16;5013225;28;47173;-73
2023/08/04 09:56:17;;;;;;;;;6.33;4.00;;;;;27.60;43.62;101521.66;5012603;28;45339;-73
2023/08/04 09:58:44;;;;;;;;;5.33;4.00;;;;;27.59;42.90;101522.66;5013062;28;45390;-73
2023/08/04 10:01:10;;;;;;;;;4.00;4.00;;;;;27.60;42.79;101526.16;5012004;28;45518;-72
2023/08/04 10:03:39;;;;;;;;;5.00;5.00;;;;;27.58;42.66;101525.56;5012964;28;45278;-73
2023/08/04 10:06:06;;;;;;;;;5.33;4.00;;;;;27.54;43.31;101525.13;5013052;28;45328;-73
2023/08/04 10:08:33;;;;;;;;;5.00;5.00;;;;;27.54;43.11;101532.31;5029359;28;45419;-73
2023/08/04 10:10:59;;;;;;;;;8.33;4.67;;;;;27.50;42.62;101532.72;5032513;28;45422;-73
2023/08/04 10:13:27;;;;;;;;;4.33;4.00;;;;;27.51;42.81;101539.72;5032667;28;46548;-73
2023/08/04 10:15:58;;;;;;;;;6.00;5.00;;;;;27.50;42.70;101540.75;5032478;28;45337;-73
2023/08/04 10:18:51;;;;;;;;;3.67;3.67;;;;;27.48;42.90;101544.66;5032627;28;45405;-72
2023/08/04 10:21:25;;;;;;;;;5.00;5.00;;;;;27.46;42.87;101557.38;5032678;28;45541;-73
2023/08/04 10:23:52;;;;;;;;;5.67;5.67;;;;;27.44;42.46;101556.75;5032825;27;46206;-73
2023/08/04 10:26:18;;;;;;;;;4.00;4.00;;;;;27.41;42.86;101565.97;5032068;27;45396;-73
2023/08/04 10:29:05;;;;;;;;;3.33;3.33;;;;;27.41;42.24;101568.66;5032625;28;45381;-73
2023/08/04 10:31:51;;;;;;;;;4.00;4.00;;;;;27.38;42.40;101563.69;5032918;28;45268;-73
2023/08/04 10:34:18;;;;;;;;;4.00;3.00;;;;;27.38;42.55;101563.69;5032389;28;46492;-73
2023/08/04 10:37:01;;;;;;;;;4.33;4.33;;;;;27.37;42.54;101570.09;5032604;28;45374;-73
2023/08/04 10:39:27;;;;;;;;;4.00;4.00;;;;;27.36;42.62;101566.59;5032128;27;45286;-73
2023/08/04 10:41:52;;;;;;;;;5.00;5.00;;;;;27.37;42.72;101572.75;5032554;28;45342;-73
2023/08/04 10:44:18;;;;;;;;;6.33;5.00;;;;;27.36;42.32;101566.59;5032174;28;45326;-73
2023/08/04 10:46:43;;;;;;;;;4.00;4.00;;;;;27.34;42.06;101563.28;5032521;28;45283;-73
2023/08/04 10:49:08;;;;;;;;;5.00;5.00;;;;;27.36;42.21;101568.44;5032389;28;45294;-73
2023/08/04 10:51:34;;;;;;;;;3.00;3.00;;;;;27.36;41.84;101571.09;5032413;28;45241;-73
2023/08/04 10:54:00;;;;;;;;;6.00;5.00;;;;;27.35;42.28;101572.13;5031644;28;46172;-73
2023/08/04 10:56:25;;;;;;;;;4.00;3.00;;;;;27.33;42.64;101575.00;5031989;28;45473;-73
2023/08/04 10:58:50;;;;;;;;;5.33;5.33;;;;;27.33;41.81;101579.50;5032262;28;45375;-73
2023/08/04 11:01:16;;;;;;;;;4.33;4.33;;;;;27.29;42.24;101577.25;5031372;28;45386;-72
2023/08/04 11:03:47;;;;;;;;;8.00;5.00;;;;;27.26;42.53;101568.81;5033269;28;46116;-70
2023/08/04 11:06:12;;;;;;;;;3.00;3.00;;;;;27.28;41.81;101575.59;5015907;28;45347;-71
2023/08/04 11:08:39;;;;;;;;;5.00;5.00;;;;;27.28;42.10;101572.94;5032728;28;45441;-71
2023/08/04 11:11:06;;;;;;;;;6.00;6.00;;;;;27.28;42.12;101566.75;5041509;27;45449;-71
2023/08/04 11:13:32;;;;;;;;;4.00;4.00;;;;;27.29;42.72;101571.09;5034950;27;45563;-71
2023/08/04 11:16:02;;;;;;;;;4.00;4.00;;;;;27.29;42.16;101560.41;5039003;27;45476;-71
2023/08/04 11:18:29;;;;;;;;;6.00;5.00;;;;;27.27;42.70;101568.59;5049024;27;45486;-71
2023/08/04 11:21:00;;;;;;;;;5.33;4.33;;;;;27.29;42.62;101563.91;5042689;27;45438;-71